Burtchville, Michigan
Current Conditions -  °F | °C
As of 3:17 AM on Friday 28 Nov 2014 (Local Time) from KPHN Reporting Station
Overcast Overcast  
Wind Chill: 12°   Ceiling: 3200
Heat Index: 21°   Visibility: 10mi
Dew Point: 10°   Wind: 8mph
Humidity: 63%   Direction: 290°WNW
Pressure: 30.31"   Gusts: 18mph
Location:  43.0393°N, 82.4847°W
Report Text: KPHN 280817Z AUTO 29007G16KT 10SM OVC032 M06/M12 A3031 RMK AO2
Loading
Personal Weather Stations






























Interactive Weather Map New forecast layout! Learn more

10-Day Weather Forecast

Advertisements
Track Severe Weather on mobile